sensor_id;sensor_type;location;lat;lon;timestamp;temperature;humidity
25550;DHT22;13444;50.562;7.262;2023-05-07T00:00:17;13.50;99.90
25550;DHT22;13444;50.562;7.262;2023-05-07T00:02:44;13.60;99.90
25550;DHT22;13444;50.562;7.262;2023-05-07T00:05:10;13.60;99.90
25550;DHT22;13444;50.562;7.262;2023-05-07T00:07:36;13.50;99.90
25550;DHT22;13444;50.562;7.262;2023-05-07T00:10:02;13.50;99.90
25550;DHT22;13444;50.562;7.262;2023-05-07T00:12:28;13.50;99.90
25550;DHT22;13444;50.562;7.262;2023-05-07T00:14:56;13.50;99.90
25550;DHT22;13444;50.562;7.262;2023-05-07T00:17:22;13.50;99.90
25550;DHT22;13444;50.562;7.262;2023-05-07T00:19:48;13.50;99.90
25550;DHT22;13444;50.562;7.262;2023-05-07T00:22:13;13.50;99.90
25550;DHT22;13444;50.562;7.262;2023-05-07T00:24:39;13.50;99.90
25550;DHT22;13444;50.562;7.262;2023-05-07T00:27:04;13.50;99.90
25550;DHT22;13444;50.562;7.262;2023-05-07T00:29:30;13.40;99.90
25550;DHT22;13444;50.562;7.262;2023-05-07T00:31:56;13.40;99.90
25550;DHT22;13444;50.562;7.262;2023-05-07T00:34:21;13.40;99.90
25550;DHT22;13444;50.562;7.262;2023-05-07T00:36:47;13.40;99.90
25550;DHT22;13444;50.562;7.262;2023-05-07T00:39:13;13.30;99.90
25550;DHT22;13444;50.562;7.262;2023-05-07T00:41:39;13.30;99.90
25550;DHT22;13444;50.562;7.262;2023-05-07T00:44:04;13.30;99.90
25550;DHT22;13444;50.562;7.262;2023-05-07T00:46:30;13.20;99.90
25550;DHT22;13444;50.562;7.262;2023-05-07T00:48:57;13.20;99.90
25550;DHT22;13444;50.562;7.262;2023-05-07T00:51:23;13.10;99.90
25550;DHT22;13444;50.562;7.262;2023-05-07T00:53:50;13.10;99.90
25550;DHT22;13444;50.562;7.262;2023-05-07T00:56:16;13.10;99.90
25550;DHT22;13444;50.562;7.262;2023-05-07T00:58:41;13.00;99.90
25550;DHT22;13444;50.562;7.262;2023-05-07T01:01:07;13.00;99.90
25550;DHT22;13444;50.562;7.262;2023-05-07T01:03:33;13.00;99.90
25550;DHT22;13444;50.562;7.262;2023-05-07T01:05:59;13.00;99.90
25550;DHT22;13444;50.562;7.262;2023-05-07T01:08:26;13.10;99.90
25550;DHT22;13444;50.562;7.262;2023-05-07T01:10:55;13.00;99.90
25550;DHT22;13444;50.562;7.262;2023-05-07T01:13:21;13.10;99.90
25550;DHT22;13444;50.562;7.262;2023-05-07T01:15:47;13.00;99.90
25550;DHT22;13444;50.562;7.262;2023-05-07T01:18:13;13.10;99.90
25550;DHT22;13444;50.562;7.262;2023-05-07T01:20:39;13.10;99.90
25550;DHT22;13444;50.562;7.262;2023-05-07T01:23:05;13.10;99.90
25550;DHT22;13444;50.562;7.262;2023-05-07T01:25:32;13.10;99.90
25550;DHT22;13444;50.562;7.262;2023-05-07T01:27:58;13.10;99.90
25550;DHT22;13444;50.562;7.262;2023-05-07T01:30:26;13.10;99.90
25550;DHT22;13444;50.562;7.262;2023-05-07T01:32:57;13.10;99.90
25550;DHT22;13444;50.562;7.262;2023-05-07T01:35:27;13.10;99.90
25550;DHT22;13444;50.562;7.262;2023-05-07T01:37:54;13.10;99.90
25550;DHT22;13444;50.562;7.262;2023-05-07T01:40:20;13.10;99.90
25550;DHT22;13444;50.562;7.262;2023-05-07T01:42:46;13.00;99.90
25550;DHT22;13444;50.562;7.262;2023-05-07T01:45:13;13.00;99.90
25550;DHT22;13444;50.562;7.262;2023-05-07T01:47:39;13.10;99.90
25550;DHT22;13444;50.562;7.262;2023-05-07T01:50:06;13.10;99.90
25550;DHT22;13444;50.562;7.262;2023-05-07T01:52:33;13.10;99.90
25550;DHT22;13444;50.562;7.262;2023-05-07T01:54:59;13.10;99.90
25550;DHT22;13444;50.562;7.262;2023-05-07T01:57:25;13.20;99.90
25550;DHT22;13444;50.562;7.262;2023-05-07T01:59:51;13.20;99.90
25550;DHT22;13444;50.562;7.262;2023-05-07T02:02:16;13.20;99.90
25550;DHT22;13444;50.562;7.262;2023-05-07T02:04:42;13.30;99.90
25550;DHT22;13444;50.562;7.262;2023-05-07T02:07:07;13.30;99.90
25550;DHT22;13444;50.562;7.262;2023-05-07T02:09:33;13.30;99.90
25550;DHT22;13444;50.562;7.262;2023-05-07T02:11:58;13.40;99.90
25550;DHT22;13444;50.562;7.262;2023-05-07T02:14:24;13.40;99.90
25550;DHT22;13444;50.562;7.262;2023-05-07T02:16:50;13.30;99.90
25550;DHT22;13444;50.562;7.262;2023-05-07T02:19:15;13.30;99.90
25550;DHT22;13444;50.562;7.262;2023-05-07T02:21:41;13.30;99.90
25550;DHT22;13444;50.562;7.262;2023-05-07T02:24:07;13.30;99.90
25550;DHT22;13444;50.562;7.262;2023-05-07T02:26:32;13.40;99.90
25550;DHT22;13444;50.562;7.262;2023-05-07T02:28:58;13.40;99.90
25550;DHT22;13444;50.562;7.262;2023-05-07T02:31:23;13.40;99.90
25550;DHT22;13444;50.562;7.262;2023-05-07T02:33:49;13.40;99.90
25550;DHT22;13444;50.562;7.262;2023-05-07T02:36:15;13.40;99.90
25550;DHT22;13444;50.562;7.262;2023-05-07T02:38:40;13.40;99.90
25550;DHT22;13444;50.562;7.262;2023-05-07T02:41:06;13.30;99.90
25550;DHT22;13444;50.562;7.262;2023-05-07T02:43:31;13.30;99.90
25550;DHT22;13444;50.562;7.262;2023-05-07T02:46:07;13.30;99.90
25550;DHT22;13444;50.562;7.262;2023-05-07T02:48:33;13.30;99.90
25550;DHT22;13444;50.562;7.262;2023-05-07T02:50:59;13.30;99.90
25550;DHT22;13444;50.562;7.262;2023-05-07T02:53:25;13.20;99.90
25550;DHT22;13444;50.562;7.262;2023-05-07T02:55:58;13.20;99.90
25550;DHT22;13444;50.562;7.262;2023-05-07T02:58:24;13.30;99.90
25550;DHT22;13444;50.562;7.262;2023-05-07T03:00:50;13.20;99.90
25550;DHT22;13444;50.562;7.262;2023-05-07T03:03:16;13.30;99.90
25550;DHT22;13444;50.562;7.262;2023-05-07T03:05:42;13.30;99.90
25550;DHT22;13444;50.562;7.262;2023-05-07T03:08:08;13.30;99.90
25550;DHT22;13444;50.562;7.262;2023-05-07T03:10:34;13.30;99.90
25550;DHT22;13444;50.562;7.262;2023-05-07T03:13:00;13.30;99.90
25550;DHT22;13444;50.562;7.262;2023-05-07T03:15:25;13.20;99.90
25550;DHT22;13444;50.562;7.262;2023-05-07T03:17:51;13.20;99.90
25550;DHT22;13444;50.562;7.262;2023-05-07T03:20:16;13.20;99.90
25550;DHT22;13444;50.562;7.262;2023-05-07T03:22:42;13.10;99.90
25550;DHT22;13444;50.562;7.262;2023-05-07T03:25:08;13.10;99.90
25550;DHT22;13444;50.562;7.262;2023-05-07T03:27:34;13.20;99.90
25550;DHT22;13444;50.562;7.262;2023-05-07T03:30:00;13.20;99.90
25550;DHT22;13444;50.562;7.262;2023-05-07T03:32:25;13.20;99.90
25550;DHT22;13444;50.562;7.262;2023-05-07T03:34:51;13.10;99.90
25550;DHT22;13444;50.562;7.262;2023-05-07T03:37:16;13.10;99.90
25550;DHT22;13444;50.562;7.262;2023-05-07T03:39:42;13.10;99.90
25550;DHT22;13444;50.562;7.262;2023-05-07T03:42:07;13.10;99.90
25550;DHT22;13444;50.562;7.262;2023-05-07T03:44:33;13.10;99.90
25550;DHT22;13444;50.562;7.262;2023-05-07T03:46:58;13.10;99.90
25550;DHT22;13444;50.562;7.262;2023-05-07T03:49:24;13.20;99.90
25550;DHT22;13444;50.562;7.262;2023-05-07T03:51:50;13.20;99.90
25550;DHT22;13444;50.562;7.262;2023-05-07T03:54:15;13.20;99.90
25550;DHT22;13444;50.562;7.262;2023-05-07T03:56:40;13.10;99.90
25550;DHT22;13444;50.562;7.262;2023-05-07T03:59:06;13.20;99.90
25550;DHT22;13444;50.562;7.262;2023-05-07T04:01:32;13.10;99.90
25550;DHT22;13444;50.562;7.262;2023-05-07T04:03:57;13.10;99.90
25550;DHT22;13444;50.562;7.262;2023-05-07T04:06:23;13.10;99.90
25550;DHT22;13444;50.562;7.262;2023-05-07T04:08:48;13.10;99.90
25550;DHT22;13444;50.562;7.262;2023-05-07T04:11:14;13.10;99.90
25550;DHT22;13444;50.562;7.262;2023-05-07T04:13:39;13.10;99.90
25550;DHT22;13444;50.562;7.262;2023-05-07T04:16:05;13.10;99.90
25550;DHT22;13444;50.562;7.262;2023-05-07T04:18:31;13.10;99.90
25550;DHT22;13444;50.562;7.262;2023-05-07T04:20:56;13.10;99.90
25550;DHT22;13444;50.562;7.262;2023-05-07T04:23:22;13.10;99.90
25550;DHT22;13444;50.562;7.262;2023-05-07T04:25:48;13.10;99.90
25550;DHT22;13444;50.562;7.262;2023-05-07T04:28:13;13.10;99.90
25550;DHT22;13444;50.562;7.262;2023-05-07T04:30:39;13.10;99.90
25550;DHT22;13444;50.562;7.262;2023-05-07T04:33:06;13.20;99.90
25550;DHT22;13444;50.562;7.262;2023-05-07T04:35:32;13.20;99.90
25550;DHT22;13444;50.562;7.262;2023-05-07T04:37:58;13.20;99.90
25550;DHT22;13444;50.562;7.262;2023-05-07T04:40:23;13.20;99.90
25550;DHT22;13444;50.562;7.262;2023-05-07T04:42:49;13.30;99.90
25550;DHT22;13444;50.562;7.262;2023-05-07T04:45:15;13.30;99.90
25550;DHT22;13444;50.562;7.262;2023-05-07T04:47:40;13.30;99.90
25550;DHT22;13444;50.562;7.262;2023-05-07T04:50:09;13.30;99.90
25550;DHT22;13444;50.562;7.262;2023-05-07T04:52:34;13.40;99.90
25550;DHT22;13444;50.562;7.262;2023-05-07T04:55:00;13.30;99.90
25550;DHT22;13444;50.562;7.262;2023-05-07T04:57:26;13.30;99.90
25550;DHT22;13444;50.562;7.262;2023-05-07T04:59:52;13.30;99.90
25550;DHT22;13444;50.562;7.262;2023-05-07T05:02:18;13.20;99.90
25550;DHT22;13444;50.562;7.262;2023-05-07T05:04:43;13.30;99.90
25550;DHT22;13444;50.562;7.262;2023-05-07T05:07:09;13.30;99.90
25550;DHT22;13444;50.562;7.262;2023-05-07T05:09:35;13.30;99.90
25550;DHT22;13444;50.562;7.262;2023-05-07T05:12:00;13.40;99.90
25550;DHT22;13444;50.562;7.262;2023-05-07T05:14:26;13.60;99.90
25550;DHT22;13444;50.562;7.262;2023-05-07T05:16:51;13.80;99.90
25550;DHT22;13444;50.562;7.262;2023-05-07T05:19:17;13.90;99.90
25550;DHT22;13444;50.562;7.262;2023-05-07T05:21:42;14.00;99.90
25550;DHT22;13444;50.562;7.262;2023-05-07T05:24:08;14.10;99.90
25550;DHT22;13444;50.562;7.262;2023-05-07T05:26:34;14.20;99.90
25550;DHT22;13444;50.562;7.262;2023-05-07T05:28:59;14.50;99.90
25550;DHT22;13444;50.562;7.262;2023-05-07T05:31:25;14.70;99.90
25550;DHT22;13444;50.562;7.262;2023-05-07T05:33:50;14.90;99.90
25550;DHT22;13444;50.562;7.262;2023-05-07T05:36:16;15.10;99.90
25550;DHT22;13444;50.562;7.262;2023-05-07T05:38:42;15.30;99.90
25550;DHT22;13444;50.562;7.262;2023-05-07T05:41:07;15.50;99.90
25550;DHT22;13444;50.562;7.262;2023-05-07T05:43:33;15.70;99.90
25550;DHT22;13444;50.562;7.262;2023-05-07T05:45:58;15.90;99.90
25550;DHT22;13444;50.562;7.262;2023-05-07T05:48:24;15.90;99.90
25550;DHT22;13444;50.562;7.262;2023-05-07T05:50:50;15.80;99.90
25550;DHT22;13444;50.562;7.262;2023-05-07T05:53:15;15.60;99.90
25550;DHT22;13444;50.562;7.262;2023-05-07T05:55:41;15.50;99.90
25550;DHT22;13444;50.562;7.262;2023-05-07T05:58:07;15.40;99.90
25550;DHT22;13444;50.562;7.262;2023-05-07T06:00:33;15.30;99.90
25550;DHT22;13444;50.562;7.262;2023-05-07T06:02:59;15.30;99.90
25550;DHT22;13444;50.562;7.262;2023-05-07T06:05:24;15.30;99.90
25550;DHT22;13444;50.562;7.262;2023-05-07T06:07:50;15.20;99.90
25550;DHT22;13444;50.562;7.262;2023-05-07T06:10:16;15.20;99.90
25550;DHT22;13444;50.562;7.262;2023-05-07T06:12:41;15.20;99.90
25550;DHT22;13444;50.562;7.262;2023-05-07T06:15:07;15.20;99.90
25550;DHT22;13444;50.562;7.262;2023-05-07T06:17:32;15.10;99.90
25550;DHT22;13444;50.562;7.262;2023-05-07T06:19:59;15.20;99.90
25550;DHT22;13444;50.562;7.262;2023-05-07T06:22:24;15.20;99.90
25550;DHT22;13444;50.562;7.262;2023-05-07T06:24:50;15.20;99.90
25550;DHT22;13444;50.562;7.262;2023-05-07T06:27:15;15.20;99.90
25550;DHT22;13444;50.562;7.262;2023-05-07T06:29:41;15.20;99.90
25550;DHT22;13444;50.562;7.262;2023-05-07T06:32:16;15.20;99.90
25550;DHT22;13444;50.562;7.262;2023-05-07T06:34:42;15.30;99.90
25550;DHT22;13444;50.562;7.262;2023-05-07T06:37:08;15.40;99.90
25550;DHT22;13444;50.562;7.262;2023-05-07T06:39:33;15.40;99.90
25550;DHT22;13444;50.562;7.262;2023-05-07T06:42:00;15.50;99.90
25550;DHT22;13444;50.562;7.262;2023-05-07T06:44:25;15.60;99.90
25550;DHT22;13444;50.562;7.262;2023-05-07T06:46:51;15.70;99.90
25550;DHT22;13444;50.562;7.262;2023-05-07T06:49:17;15.70;99.90
25550;DHT22;13444;50.562;7.262;2023-05-07T06:51:42;15.80;99.90
25550;DHT22;13444;50.562;7.262;2023-05-07T06:54:08;15.80;99.90
25550;DHT22;13444;50.562;7.262;2023-05-07T06:56:33;15.90;99.90
25550;DHT22;13444;50.562;7.262;2023-05-07T06:59:00;16.00;99.90
25550;DHT22;13444;50.562;7.262;2023-05-07T07:01:26;16.00;99.90
25550;DHT22;13444;50.562;7.262;2023-05-07T07:03:51;16.10;99.90
25550;DHT22;13444;50.562;7.262;2023-05-07T07:06:17;16.10;99.90
25550;DHT22;13444;50.562;7.262;2023-05-07T07:08:43;16.10;99.90
25550;DHT22;13444;50.562;7.262;2023-05-07T07:11:10;16.20;99.90
25550;DHT22;13444;50.562;7.262;2023-05-07T07:13:36;16.30;99.90
25550;DHT22;13444;50.562;7.262;2023-05-07T07:16:02;16.40;99.90
25550;DHT22;13444;50.562;7.262;2023-05-07T07:18:28;16.40;99.90
25550;DHT22;13444;50.562;7.262;2023-05-07T07:20:53;16.50;99.90
25550;DHT22;13444;50.562;7.262;2023-05-07T07:23:19;16.60;99.90
25550;DHT22;13444;50.562;7.262;2023-05-07T07:25:45;16.70;99.90
25550;DHT22;13444;50.562;7.262;2023-05-07T07:28:10;16.80;99.90
25550;DHT22;13444;50.562;7.262;2023-05-07T07:30:37;16.80;99.90
25550;DHT22;13444;50.562;7.262;2023-05-07T07:33:03;16.90;99.90
25550;DHT22;13444;50.562;7.262;2023-05-07T07:35:29;17.00;99.90
25550;DHT22;13444;50.562;7.262;2023-05-07T07:37:55;17.10;99.90
25550;DHT22;13444;50.562;7.262;2023-05-07T07:40:20;17.10;99.90
25550;DHT22;13444;50.562;7.262;2023-05-07T07:42:46;17.20;99.90
25550;DHT22;13444;50.562;7.262;2023-05-07T07:45:12;17.20;99.90
25550;DHT22;13444;50.562;7.262;2023-05-07T07:47:38;17.30;99.90
25550;DHT22;13444;50.562;7.262;2023-05-07T07:50:04;17.30;99.90
25550;DHT22;13444;50.562;7.262;2023-05-07T07:52:30;17.30;99.90
25550;DHT22;13444;50.562;7.262;2023-05-07T07:54:56;17.40;99.90
25550;DHT22;13444;50.562;7.262;2023-05-07T07:57:21;17.40;99.90
25550;DHT22;13444;50.562;7.262;2023-05-07T07:59:47;17.50;99.90
25550;DHT22;13444;50.562;7.262;2023-05-07T08:02:12;17.50;99.90
25550;DHT22;13444;50.562;7.262;2023-05-07T08:04:38;17.50;99.90
25550;DHT22;13444;50.562;7.262;2023-05-07T08:07:04;17.50;99.90
25550;DHT22;13444;50.562;7.262;2023-05-07T08:09:29;17.40;99.90
25550;DHT22;13444;50.562;7.262;2023-05-07T08:11:55;17.60;99.90
25550;DHT22;13444;50.562;7.262;2023-05-07T08:14:20;17.50;99.90
25550;DHT22;13444;50.562;7.262;2023-05-07T08:16:46;17.60;99.90
25550;DHT22;13444;50.562;7.262;2023-05-07T08:19:11;17.60;99.90
25550;DHT22;13444;50.562;7.262;2023-05-07T08:21:40;17.60;99.90
25550;DHT22;13444;50.562;7.262;2023-05-07T08:24:06;17.70;99.90
25550;DHT22;13444;50.562;7.262;2023-05-07T08:26:31;17.80;99.90
25550;DHT22;13444;50.562;7.262;2023-05-07T08:28:57;17.80;99.90
25550;DHT22;13444;50.562;7.262;2023-05-07T08:31:22;17.80;99.90
25550;DHT22;13444;50.562;7.262;2023-05-07T08:33:48;17.90;99.90
25550;DHT22;13444;50.562;7.262;2023-05-07T08:36:13;17.90;99.90
25550;DHT22;13444;50.562;7.262;2023-05-07T08:38:39;18.00;99.90
25550;DHT22;13444;50.562;7.262;2023-05-07T08:41:10;18.20;99.90
25550;DHT22;13444;50.562;7.262;2023-05-07T08:43:36;18.30;99.90
25550;DHT22;13444;50.562;7.262;2023-05-07T08:46:04;18.40;99.90
25550;DHT22;13444;50.562;7.262;2023-05-07T08:48:31;18.60;99.90
25550;DHT22;13444;50.562;7.262;2023-05-07T08:50:58;18.50;99.90
25550;DHT22;13444;50.562;7.262;2023-05-07T08:53:24;18.60;99.90
25550;DHT22;13444;50.562;7.262;2023-05-07T08:55:50;18.70;99.90
25550;DHT22;13444;50.562;7.262;2023-05-07T08:58:16;18.80;99.90
25550;DHT22;13444;50.562;7.262;2023-05-07T09:00:42;18.80;99.90
25550;DHT22;13444;50.562;7.262;2023-05-07T09:03:07;19.10;99.90
25550;DHT22;13444;50.562;7.262;2023-05-07T09:05:33;19.30;99.90
25550;DHT22;13444;50.562;7.262;2023-05-07T09:07:59;19.60;99.90
25550;DHT22;13444;50.562;7.262;2023-05-07T09:10:26;19.90;99.90
25550;DHT22;13444;50.562;7.262;2023-05-07T09:12:51;20.20;99.90
25550;DHT22;13444;50.562;7.262;2023-05-07T09:15:18;20.60;99.90
25550;DHT22;13444;50.562;7.262;2023-05-07T09:17:44;20.70;99.90
25550;DHT22;13444;50.562;7.262;2023-05-07T09:20:10;20.70;99.90
25550;DHT22;13444;50.562;7.262;2023-05-07T09:22:39;20.90;99.90
25550;DHT22;13444;50.562;7.262;2023-05-07T09:25:06;21.00;99.90
25550;DHT22;13444;50.562;7.262;2023-05-07T09:27:31;21.20;99.90
25550;DHT22;13444;50.562;7.262;2023-05-07T09:29:57;21.50;99.90
25550;DHT22;13444;50.562;7.262;2023-05-07T09:32:23;21.90;99.90
25550;DHT22;13444;50.562;7.262;2023-05-07T09:34:50;22.40;99.90
25550;DHT22;13444;50.562;7.262;2023-05-07T09:37:15;22.90;99.90
25550;DHT22;13444;50.562;7.262;2023-05-07T09:39:48;23.10;99.90
25550;DHT22;13444;50.562;7.262;2023-05-07T09:42:14;23.20;99.90
25550;DHT22;13444;50.562;7.262;2023-05-07T09:44:40;23.10;99.90
25550;DHT22;13444;50.562;7.262;2023-05-07T09:47:07;23.10;99.90
25550;DHT22;13444;50.562;7.262;2023-05-07T09:49:37;23.80;99.90
25550;DHT22;13444;50.562;7.262;2023-05-07T09:52:04;24.40;99.90
25550;DHT22;13444;50.562;7.262;2023-05-07T09:54:35;24.90;99.90
25550;DHT22;13444;50.562;7.262;2023-05-07T09:57:04;25.20;99.90
25550;DHT22;13444;50.562;7.262;2023-05-07T09:59:31;25.20;99.90
25550;DHT22;13444;50.562;7.262;2023-05-07T10:01:58;25.40;99.90
25550;DHT22;13444;50.562;7.262;2023-05-07T10:04:27;25.70;99.90
25550;DHT22;13444;50.562;7.262;2023-05-07T10:06:53;26.10;99.90
25550;DHT22;13444;50.562;7.262;2023-05-07T10:09:21;26.40;99.90
25550;DHT22;13444;50.562;7.262;2023-05-07T10:11:48;26.50;99.90
25550;DHT22;13444;50.562;7.262;2023-05-07T10:14:14;26.70;99.90
25550;DHT22;13444;50.562;7.262;2023-05-07T10:16:41;26.80;99.90
25550;DHT22;13444;50.562;7.262;2023-05-07T10:19:08;26.60;99.90
25550;DHT22;13444;50.562;7.262;2023-05-07T10:21:37;26.80;99.90
25550;DHT22;13444;50.562;7.262;2023-05-07T10:24:05;26.70;99.90
25550;DHT22;13444;50.562;7.262;2023-05-07T10:26:41;26.60;99.90
25550;DHT22;13444;50.562;7.262;2023-05-07T10:29:16;26.60;99.90
25550;DHT22;13444;50.562;7.262;2023-05-07T10:34:26;26.80;99.90
25550;DHT22;13444;50.562;7.262;2023-05-07T10:36:54;27.00;99.90
25550;DHT22;13444;50.562;7.262;2023-05-07T10:39:21;27.10;99.90
25550;DHT22;13444;50.562;7.262;2023-05-07T10:41:48;27.30;99.90
25550;DHT22;13444;50.562;7.262;2023-05-07T10:44:27;27.20;99.90
25550;DHT22;13444;50.562;7.262;2023-05-07T10:47:07;27.30;99.90
25550;DHT22;13444;50.562;7.262;2023-05-07T10:49:35;27.40;99.90
25550;DHT22;13444;50.562;7.262;2023-05-07T10:52:30;27.30;99.90
25550;DHT22;13444;50.562;7.262;2023-05-07T10:57:40;27.30;99.90
25550;DHT22;13444;50.562;7.262;2023-05-07T11:05:30;27.00;99.90
25550;DHT22;13444;50.562;7.262;2023-05-07T11:07:57;26.80;99.90
25550;DHT22;13444;50.562;7.262;2023-05-07T11:13:15;26.90;99.90
25550;DHT22;13444;50.562;7.262;2023-05-07T11:15:46;26.60;99.90
25550;DHT22;13444;50.562;7.262;2023-05-07T11:18:14;26.30;99.90
25550;DHT22;13444;50.562;7.262;2023-05-07T11:26:04;26.30;99.90
25550;DHT22;13444;50.562;7.262;2023-05-07T11:28:31;26.10;99.90
25550;DHT22;13444;50.562;7.262;2023-05-07T11:31:01;26.10;99.90
25550;DHT22;13444;50.562;7.262;2023-05-07T11:33:27;26.20;99.90
25550;DHT22;13444;50.562;7.262;2023-05-07T11:35:53;26.00;99.90
25550;DHT22;13444;50.562;7.262;2023-05-07T11:38:19;26.10;99.90
25550;DHT22;13444;50.562;7.262;2023-05-07T11:40:52;26.20;99.90
25550;DHT22;13444;50.562;7.262;2023-05-07T11:43:18;26.20;99.90
25550;DHT22;13444;50.562;7.262;2023-05-07T11:45:45;26.10;99.90
25550;DHT22;13444;50.562;7.262;2023-05-07T11:48:12;26.10;99.90
25550;DHT22;13444;50.562;7.262;2023-05-07T11:50:54;26.10;99.90
25550;DHT22;13444;50.562;7.262;2023-05-07T11:53:20;26.20;99.90
25550;DHT22;13444;50.562;7.262;2023-05-07T11:55:46;26.40;99.90
25550;DHT22;13444;50.562;7.262;2023-05-07T11:58:18;26.40;99.90
25550;DHT22;13444;50.562;7.262;2023-05-07T12:00:53;26.60;99.90
25550;DHT22;13444;50.562;7.262;2023-05-07T12:03:19;26.70;99.90
25550;DHT22;13444;50.562;7.262;2023-05-07T12:05:46;26.40;99.90
25550;DHT22;13444;50.562;7.262;2023-05-07T12:08:15;26.10;99.90
25550;DHT22;13444;50.562;7.262;2023-05-07T12:10:42;26.10;99.90
25550;DHT22;13444;50.562;7.262;2023-05-07T12:13:18;26.10;99.90
25550;DHT22;13444;50.562;7.262;2023-05-07T12:15:43;26.30;99.90
25550;DHT22;13444;50.562;7.262;2023-05-07T12:18:10;26.10;99.90
25550;DHT22;13444;50.562;7.262;2023-05-07T12:20:36;26.20;99.90
25550;DHT22;13444;50.562;7.262;2023-05-07T12:23:02;26.20;99.90
25550;DHT22;13444;50.562;7.262;2023-05-07T12:25:38;26.40;99.90
25550;DHT22;13444;50.562;7.262;2023-05-07T12:28:04;26.30;99.90
25550;DHT22;13444;50.562;7.262;2023-05-07T12:30:37;26.50;99.90
25550;DHT22;13444;50.562;7.262;2023-05-07T12:33:03;26.60;99.90
25550;DHT22;13444;50.562;7.262;2023-05-07T12:35:36;26.80;99.90
25550;DHT22;13444;50.562;7.262;2023-05-07T12:38:08;27.20;99.90
25550;DHT22;13444;50.562;7.262;2023-05-07T12:40:41;27.40;99.90
25550;DHT22;13444;50.562;7.262;2023-05-07T12:43:08;27.70;99.90
25550;DHT22;13444;50.562;7.262;2023-05-07T12:45:41;27.50;99.90
25550;DHT22;13444;50.562;7.262;2023-05-07T12:48:06;27.60;99.90
25550;DHT22;13444;50.562;7.262;2023-05-07T12:50:34;27.80;99.90
25550;DHT22;13444;50.562;7.262;2023-05-07T12:53:00;27.90;99.90
25550;DHT22;13444;50.562;7.262;2023-05-07T12:55:31;28.10;99.90
25550;DHT22;13444;50.562;7.262;2023-05-07T12:57:57;28.00;99.90
25550;DHT22;13444;50.562;7.262;2023-05-07T13:00:37;27.60;99.90
25550;DHT22;13444;50.562;7.262;2023-05-07T13:03:03;27.80;99.90
25550;DHT22;13444;50.562;7.262;2023-05-07T13:05:28;27.90;99.90
25550;DHT22;13444;50.562;7.262;2023-05-07T13:07:55;28.20;99.90
25550;DHT22;13444;50.562;7.262;2023-05-07T13:10:22;28.30;99.90
25550;DHT22;13444;50.562;7.262;2023-05-07T13:12:48;28.40;99.90
25550;DHT22;13444;50.562;7.262;2023-05-07T13:15:14;28.30;99.90
25550;DHT22;13444;50.562;7.262;2023-05-07T13:17:40;28.30;99.90
25550;DHT22;13444;50.562;7.262;2023-05-07T13:20:06;28.40;99.90
25550;DHT22;13444;50.562;7.262;2023-05-07T13:22:33;28.20;99.90
25550;DHT22;13444;50.562;7.262;2023-05-07T13:24:58;27.80;99.90
25550;DHT22;13444;50.562;7.262;2023-05-07T13:27:24;27.40;99.90
25550;DHT22;13444;50.562;7.262;2023-05-07T13:29:50;27.10;99.90
25550;DHT22;13444;50.562;7.262;2023-05-07T13:32:15;26.80;99.90
25550;DHT22;13444;50.562;7.262;2023-05-07T13:34:41;26.60;99.90
25550;DHT22;13444;50.562;7.262;2023-05-07T13:37:06;26.50;99.90
25550;DHT22;13444;50.562;7.262;2023-05-07T13:39:33;26.30;99.90
25550;DHT22;13444;50.562;7.262;2023-05-07T13:41:58;26.10;99.90
25550;DHT22;13444;50.562;7.262;2023-05-07T13:44:27;26.10;99.90
25550;DHT22;13444;50.562;7.262;2023-05-07T13:46:52;26.00;99.90
25550;DHT22;13444;50.562;7.262;2023-05-07T13:49:18;26.00;99.90
25550;DHT22;13444;50.562;7.262;2023-05-07T13:51:43;25.80;99.90
25550;DHT22;13444;50.562;7.262;2023-05-07T13:54:09;25.80;99.90
25550;DHT22;13444;50.562;7.262;2023-05-07T13:56:34;25.80;99.90
25550;DHT22;13444;50.562;7.262;2023-05-07T13:59:00;25.70;99.90
25550;DHT22;13444;50.562;7.262;2023-05-07T14:01:26;25.60;99.90
25550;DHT22;13444;50.562;7.262;2023-05-07T14:03:52;25.50;99.90
25550;DHT22;13444;50.562;7.262;2023-05-07T14:06:17;25.60;99.90
25550;DHT22;13444;50.562;7.262;2023-05-07T14:08:44;25.60;99.90
25550;DHT22;13444;50.562;7.262;2023-05-07T14:11:09;25.50;99.90
25550;DHT22;13444;50.562;7.262;2023-05-07T14:13:35;25.40;99.90
25550;DHT22;13444;50.562;7.262;2023-05-07T14:16:00;25.40;99.90
25550;DHT22;13444;50.562;7.262;2023-05-07T14:18:26;25.30;99.90
25550;DHT22;13444;50.562;7.262;2023-05-07T14:20:54;25.20;99.90
25550;DHT22;13444;50.562;7.262;2023-05-07T14:23:19;25.20;99.90
25550;DHT22;13444;50.562;7.262;2023-05-07T14:25:47;25.10;99.90
25550;DHT22;13444;50.562;7.262;2023-05-07T14:28:13;24.90;99.90
25550;DHT22;13444;50.562;7.262;2023-05-07T14:30:38;24.70;99.90
25550;DHT22;13444;50.562;7.262;2023-05-07T14:33:04;24.60;99.90
25550;DHT22;13444;50.562;7.262;2023-05-07T14:35:29;24.40;99.90
25550;DHT22;13444;50.562;7.262;2023-05-07T14:37:55;24.30;99.90
25550;DHT22;13444;50.562;7.262;2023-05-07T14:40:20;24.10;99.90
25550;DHT22;13444;50.562;7.262;2023-05-07T14:42:46;24.10;99.90
25550;DHT22;13444;50.562;7.262;2023-05-07T14:45:11;24.10;99.90
25550;DHT22;13444;50.562;7.262;2023-05-07T14:47:38;23.90;99.90
25550;DHT22;13444;50.562;7.262;2023-05-07T14:50:03;23.70;99.90
25550;DHT22;13444;50.562;7.262;2023-05-07T14:52:29;23.40;99.90
25550;DHT22;13444;50.562;7.262;2023-05-07T14:54:55;23.30;99.90
25550;DHT22;13444;50.562;7.262;2023-05-07T14:57:20;23.30;99.90
25550;DHT22;13444;50.562;7.262;2023-05-07T14:59:46;23.30;99.90
25550;DHT22;13444;50.562;7.262;2023-05-07T15:02:12;23.20;99.90
25550;DHT22;13444;50.562;7.262;2023-05-07T15:04:38;23.10;99.90
25550;DHT22;13444;50.562;7.262;2023-05-07T15:07:13;22.90;99.90
25550;DHT22;13444;50.562;7.262;2023-05-07T15:09:44;22.60;99.90
25550;DHT22;13444;50.562;7.262;2023-05-07T15:12:10;22.20;99.90
25550;DHT22;13444;50.562;7.262;2023-05-07T15:14:37;22.00;99.90
25550;DHT22;13444;50.562;7.262;2023-05-07T15:17:03;21.50;99.90
25550;DHT22;13444;50.562;7.262;2023-05-07T15:19:28;21.30;99.90
25550;DHT22;13444;50.562;7.262;2023-05-07T15:21:56;20.70;99.90
25550;DHT22;13444;50.562;7.262;2023-05-07T15:24:23;20.30;99.90
25550;DHT22;13444;50.562;7.262;2023-05-07T15:26:48;19.80;99.90
25550;DHT22;13444;50.562;7.262;2023-05-07T15:29:14;19.60;99.90
25550;DHT22;13444;50.562;7.262;2023-05-07T15:31:40;19.30;99.90
25550;DHT22;13444;50.562;7.262;2023-05-07T15:34:06;19.00;99.90
25550;DHT22;13444;50.562;7.262;2023-05-07T15:36:31;18.90;99.90
25550;DHT22;13444;50.562;7.262;2023-05-07T15:38:57;18.70;99.90
25550;DHT22;13444;50.562;7.262;2023-05-07T15:41:22;18.60;99.90
25550;DHT22;13444;50.562;7.262;2023-05-07T15:43:50;18.50;99.90